Time;durP1;ratioP1;P1;durP2;ratioP2;P2;SDS_P1;SDS_P2;PMS_P1;PMS_P2;Temp;Humidity;BMP_temperature;BMP_pressure;BME280_temperature;BME280_humidity;BME280_pressure;Samples;Min_cycle;Max_cycle;Signal;HPM_P1;HPM_P2
2022/07/04 00:02:24;;;;;;;;;;;15.70;90.30;;;;;;5035657;28;19928;-74
2022/07/04 00:04:52;;;;;;;;;;;15.60;90.30;;;;;;5018423;28;20268;-73
2022/07/04 00:07:20;;;;;;;;;;;15.50;90.60;;;;;;5016736;28;19932;-75
2022/07/04 00:09:47;;;;;;;;;;;15.40;90.90;;;;;;5035173;28;19921;-74
2022/07/04 00:12:15;;;;;;;;;;;15.40;90.90;;;;;;5035277;28;19929;-74
2022/07/04 00:14:42;;;;;;;;;;;15.30;91.00;;;;;;5034262;28;19920;-75
2022/07/04 00:17:10;;;;;;;;;;;15.20;91.20;;;;;;5035242;28;19928;-74
2022/07/04 00:19:37;;;;;;;;;;;15.10;91.20;;;;;;5035314;28;20351;-73
2022/07/04 00:22:04;;;;;;;;;;;15.10;91.20;;;;;;5033763;28;19921;-74
2022/07/04 00:24:32;;;;;;;;;;;15.00;91.70;;;;;;5017678;28;19921;-74
2022/07/04 00:26:59;;;;;;;;;;;14.90;92.00;;;;;;5033806;28;19929;-74
2022/07/04 00:29:27;;;;;;;;;;;14.90;91.80;;;;;;5017699;28;20267;-73
2022/07/04 00:31:55;;;;;;;;;;;14.80;92.00;;;;;;5035149;28;19932;-76
2022/07/04 00:34:22;;;;;;;;;;;14.80;91.90;;;;;;5033779;28;20287;-74
2022/07/04 00:36:50;;;;;;;;;;;14.70;91.70;;;;;;5035145;28;19921;-74
2022/07/04 00:39:17;;;;;;;;;;;14.70;91.70;;;;;;5017575;28;19920;-72
2022/07/04 00:41:45;;;;;;;;;;;14.70;91.80;;;;;;5037207;28;19932;-75
2022/07/04 00:44:13;;;;;;;;;;;14.70;92.00;;;;;;5039235;28;19931;-75
2022/07/04 00:46:41;;;;;;;;;;;14.60;92.00;;;;;;5037623;28;19921;-73
2022/07/04 00:49:09;;;;;;;;;;;14.60;92.10;;;;;;5038855;28;19928;-72
2022/07/04 00:51:37;;;;;;;;;;;14.60;92.00;;;;;;5038625;28;19921;-75
2022/07/04 00:54:06;;;;;;;;;;;14.50;92.00;;;;;;5037860;28;19921;-74
2022/07/04 00:56:38;;;;;;;;;;;14.50;92.00;;;;;;5039090;28;19928;-73
2022/07/04 00:59:06;;;;;;;;;;;14.50;92.00;;;;;;5038834;28;20248;-74
2022/07/04 01:01:33;;;;;;;;;;;14.40;92.20;;;;;;5037593;28;20344;-74
2022/07/04 01:04:02;;;;;;;;;;;14.40;92.30;;;;;;5038469;28;19928;-75
2022/07/04 01:06:29;;;;;;;;;;;14.40;92.30;;;;;;5037240;28;19921;-73
2022/07/04 01:08:57;;;;;;;;;;;14.30;92.50;;;;;;5038496;28;19928;-75
2022/07/04 01:11:25;;;;;;;;;;;14.30;92.60;;;;;;5038294;28;20343;-75
2022/07/04 01:13:55;;;;;;;;;;;14.30;92.60;;;;;;5037306;28;20244;-75
2022/07/04 01:16:25;;;;;;;;;;;14.20;92.30;;;;;;5020893;28;20283;-75
2022/07/04 01:18:53;;;;;;;;;;;14.20;92.60;;;;;;5038354;28;19988;-72
2022/07/04 01:21:21;;;;;;;;;;;14.10;92.60;;;;;;5037144;28;19921;-75
2022/07/04 01:23:49;;;;;;;;;;;14.10;92.80;;;;;;5020694;28;19921;-74
2022/07/04 01:26:16;;;;;;;;;;;14.00;92.80;;;;;;5037921;28;20370;-75
2022/07/04 01:28:44;;;;;;;;;;;13.90;92.70;;;;;;5036823;28;19921;-74
2022/07/04 01:31:11;;;;;;;;;;;13.90;92.90;;;;;;5020722;28;19921;-74
2022/07/04 01:33:39;;;;;;;;;;;13.90;92.90;;;;;;5019560;28;20332;-74
2022/07/04 01:36:06;;;;;;;;;;;13.70;92.60;;;;;;5020634;28;20259;-74
2022/07/04 01:38:34;;;;;;;;;;;13.80;93.00;;;;;;5020317;28;19921;-74
2022/07/04 01:41:01;;;;;;;;;;;13.70;92.80;;;;;;5036609;28;19940;-74
2022/07/04 01:43:28;;;;;;;;;;;13.70;93.10;;;;;;5037885;28;19932;-75
2022/07/04 01:45:56;;;;;;;;;;;13.70;93.00;;;;;;5037650;28;19928;-73
2022/07/04 01:48:23;;;;;;;;;;;13.70;93.20;;;;;;5036562;28;19921;-73
2022/07/04 01:50:50;;;;;;;;;;;13.60;93.20;;;;;;5037497;28;19932;-73
2022/07/04 01:53:18;;;;;;;;;;;13.60;93.30;;;;;;5018847;28;19931;-74
2022/07/04 01:55:45;;;;;;;;;;;13.50;93.50;;;;;;5037568;28;19921;-76
2022/07/04 01:58:13;;;;;;;;;;;13.40;93.40;;;;;;5037528;28;19920;-75
2022/07/04 02:03:26;;;;;;;;;;;13.20;94.00;;;;;;5037897;28;19928;-73
2022/07/04 02:05:54;;;;;;;;;;;13.10;93.80;;;;;;5037211;28;19921;-75
2022/07/04 02:08:21;;;;;;;;;;;13.10;94.20;;;;;;5036463;28;19921;-75
2022/07/04 02:10:48;;;;;;;;;;;13.00;94.00;;;;;;5037103;28;19921;-74
2022/07/04 02:13:16;;;;;;;;;;;12.90;94.20;;;;;;5036201;28;19924;-74
2022/07/04 02:15:43;;;;;;;;;;;12.90;94.30;;;;;;5037300;28;19944;-75
2022/07/04 02:18:11;;;;;;;;;;;12.80;94.30;;;;;;5036934;28;20331;-73
2022/07/04 02:20:38;;;;;;;;;;;12.80;94.60;;;;;;5035905;28;19921;-75
2022/07/04 02:23:06;;;;;;;;;;;12.70;94.20;;;;;;5019916;28;19925;-73
2022/07/04 02:25:33;;;;;;;;;;;12.70;94.90;;;;;;5037032;28;19936;-72
2022/07/04 02:28:01;;;;;;;;;;;12.60;94.90;;;;;;5035800;28;19921;-74
2022/07/04 02:30:28;;;;;;;;;;;12.60;94.80;;;;;;5036925;28;19920;-75
2022/07/04 02:32:55;;;;;;;;;;;12.60;95.30;;;;;;5036936;28;19925;-75
2022/07/04 02:35:23;;;;;;;;;;;12.50;95.70;;;;;;5035834;28;19921;-74
2022/07/04 02:37:50;;;;;;;;;;;12.40;95.40;;;;;;5036917;28;19920;-75
2022/07/04 02:40:18;;;;;;;;;;;12.50;95.00;;;;;;5018122;28;19932;-74
2022/07/04 02:42:45;;;;;;;;;;;12.40;95.30;;;;;;5036657;28;19920;-74
2022/07/04 02:45:12;;;;;;;;;;;12.50;95.50;;;;;;5035662;28;20374;-73
2022/07/04 02:47:40;;;;;;;;;;;12.50;95.50;;;;;;5035394;28;19932;-74
2022/07/04 02:50:07;;;;;;;;;;;12.40;95.00;;;;;;5036432;28;19921;-74
2022/07/04 02:52:35;;;;;;;;;;;12.30;95.40;;;;;;5002925;28;20355;-74
2022/07/04 02:55:02;;;;;;;;;;;12.40;95.50;;;;;;5035393;28;20276;-74
2022/07/04 02:57:29;;;;;;;;;;;12.30;95.60;;;;;;5036268;28;19920;-75
2022/07/04 02:59:57;;;;;;;;;;;12.30;95.60;;;;;;5035340;28;19932;-74
2022/07/04 03:02:24;;;;;;;;;;;12.30;96.10;;;;;;5036340;28;19921;-75
2022/07/04 03:04:52;;;;;;;;;;;12.20;95.30;;;;;;5035451;28;19932;-74
2022/07/04 03:07:19;;;;;;;;;;;12.20;95.50;;;;;;5034937;28;19928;-74
2022/07/04 03:09:46;;;;;;;;;;;12.20;95.60;;;;;;5036375;28;19932;-73
2022/07/04 03:12:14;;;;;;;;;;;12.20;95.40;;;;;;5035991;28;19925;-74
2022/07/04 03:14:41;;;;;;;;;;;12.20;95.30;;;;;;5017998;28;20344;-75
2022/07/04 03:17:09;;;;;;;;;;;12.20;95.60;;;;;;5037900;28;19928;-73
2022/07/04 03:19:36;;;;;;;;;;;12.10;95.70;;;;;;5035737;28;19925;-72
2022/07/04 03:22:03;;;;;;;;;;;12.10;95.90;;;;;;5034620;28;19925;-73
2022/07/04 03:24:31;;;;;;;;;;;12.00;95.60;;;;;;5036233;28;20352;-73
2022/07/04 03:26:58;;;;;;;;;;;12.00;95.70;;;;;;5017481;28;20343;-75
2022/07/04 03:29:26;;;;;;;;;;;11.80;95.80;;;;;;5035794;28;19943;-74
2022/07/04 03:31:53;;;;;;;;;;;11.90;95.80;;;;;;5035858;28;19921;-74
2022/07/04 03:34:20;;;;;;;;;;;11.80;95.70;;;;;;5034454;28;19921;-75
2022/07/04 03:36:48;;;;;;;;;;;11.80;95.70;;;;;;5035543;28;19921;-74
2022/07/04 03:39:15;;;;;;;;;;;11.80;96.00;;;;;;5035625;28;19921;-75
2022/07/04 03:41:42;;;;;;;;;;;11.70;96.40;;;;;;5001028;28;19921;-74
2022/07/04 03:44:10;;;;;;;;;;;11.70;96.10;;;;;;5035418;28;19921;-73
2022/07/04 03:46:37;;;;;;;;;;;11.70;95.90;;;;;;5034259;28;19925;-74
2022/07/04 03:49:05;;;;;;;;;;;11.70;96.20;;;;;;5018341;28;19928;-75
2022/07/04 03:51:32;;;;;;;;;;;11.70;96.10;;;;;;5035916;28;19928;-74
2022/07/04 03:54:00;;;;;;;;;;;11.70;96.20;;;;;;5034289;28;19921;-73
2022/07/04 03:56:27;;;;;;;;;;;11.80;95.80;;;;;;5035273;28;19925;-73
2022/07/04 03:58:55;;;;;;;;;;;11.90;95.70;;;;;;5035334;28;19921;-75
2022/07/04 04:01:22;;;;;;;;;;;11.90;95.60;;;;;;5034054;28;19936;-73
2022/07/04 04:06:35;;;;;;;;;;;12.00;95.50;;;;;;5034365;28;19921;-75
2022/07/04 04:09:03;;;;;;;;;;;12.10;95.50;;;;;;5018046;28;20374;-74
2022/07/04 04:11:36;;;;;;;;;;;12.10;95.60;;;;;;5035102;28;19928;-74
2022/07/04 04:14:03;;;;;;;;;;;12.10;95.40;;;;;;5016883;28;19925;-73
2022/07/04 04:16:31;;;;;;;;;;;12.20;95.50;;;;;;5034567;28;19932;-73
2022/07/04 04:18:58;;;;;;;;;;;12.70;95.70;;;;;;5035224;28;19921;-75
2022/07/04 04:21:26;;;;;;;;;;;12.30;95.30;;;;;;5033810;28;19921;-74
2022/07/04 04:23:53;;;;;;;;;;;12.30;95.30;;;;;;5017468;28;19932;-74
2022/07/04 04:26:21;;;;;;;;;;;12.40;95.20;;;;;;5018348;28;20264;-76
2022/07/04 04:28:48;;;;;;;;;;;12.40;95.00;;;;;;5033886;28;19921;-74
2022/07/04 04:31:17;;;;;;;;;;;12.40;95.00;;;;;;5017607;28;19932;-74
2022/07/04 04:33:44;;;;;;;;;;;12.50;94.90;;;;;;5034117;28;19921;-75
2022/07/04 04:36:12;;;;;;;;;;;12.60;94.80;;;;;;5017572;28;19921;-76
2022/07/04 04:38:39;;;;;;;;;;;12.60;94.90;;;;;;5035096;28;19921;-75
2022/07/04 04:41:06;;;;;;;;;;;12.60;94.90;;;;;;5033720;28;19925;-74
2022/07/04 04:43:34;;;;;;;;;;;12.60;94.90;;;;;;5035055;28;19928;-74
2022/07/04 04:46:01;;;;;;;;;;;12.50;95.20;;;;;;5034777;28;19932;-75
2022/07/04 04:48:29;;;;;;;;;;;12.60;95.10;;;;;;5033613;28;19931;-74
2022/07/04 04:50:56;;;;;;;;;;;12.50;95.00;;;;;;5017739;28;19921;-73
2022/07/04 04:53:25;;;;;;;;;;;12.50;95.00;;;;;;5016524;28;19940;-74
2022/07/04 04:55:53;;;;;;;;;;;12.50;95.00;;;;;;5017295;28;19932;-74
2022/07/04 04:58:21;;;;;;;;;;;12.60;95.00;;;;;;5034636;28;19988;-74
2022/07/04 05:00:49;;;;;;;;;;;12.60;95.30;;;;;;5016450;28;19936;-75
2022/07/04 05:03:36;;;;;;;;;;;12.60;95.00;;;;;;5034877;28;20266;-73
2022/07/04 05:06:07;;;;;;;;;;;12.60;95.00;;;;;;5034587;28;19932;-75
2022/07/04 05:08:34;;;;;;;;;;;12.70;94.90;;;;;;5033544;28;19928;-74
2022/07/04 05:11:02;;;;;;;;;;;12.70;94.90;;;;;;5017082;28;19932;-74
2022/07/04 05:13:29;;;;;;;;;;;12.70;94.90;;;;;;5033712;28;19920;-76
2022/07/04 05:15:56;;;;;;;;;;;12.70;95.00;;;;;;5034309;28;19944;-73
2022/07/04 05:18:24;;;;;;;;;;;12.80;94.90;;;;;;5034292;28;19943;-75
2022/07/04 05:20:51;;;;;;;;;;;12.80;95.10;;;;;;5016305;28;19921;-74
2022/07/04 05:23:19;;;;;;;;;;;12.90;94.80;;;;;;5034453;28;19932;-73
2022/07/04 05:25:47;;;;;;;;;;;12.90;94.70;;;;;;5034502;28;19921;-73
2022/07/04 05:28:14;;;;;;;;;;;13.00;94.70;;;;;;5035664;28;19921;-73
2022/07/04 05:30:42;;;;;;;;;;;13.00;94.50;;;;;;5038189;28;19921;-76
2022/07/04 05:33:09;;;;;;;;;;;13.10;94.60;;;;;;5036793;28;20283;-75
2022/07/04 05:35:37;;;;;;;;;;;13.20;94.50;;;;;;5037923;28;19921;-75
2022/07/04 05:38:04;;;;;;;;;;;13.20;94.50;;;;;;5037776;28;19921;-75
2022/07/04 05:40:32;;;;;;;;;;;13.40;94.30;;;;;;5019618;28;19928;-73
2022/07/04 05:42:59;;;;;;;;;;;13.40;94.10;;;;;;5020693;28;19921;-73
2022/07/04 05:45:27;;;;;;;;;;;13.50;94.00;;;;;;5020697;28;19921;-75
2022/07/04 05:47:54;;;;;;;;;;;13.70;94.00;;;;;;5036889;28;19940;-75
2022/07/04 05:50:22;;;;;;;;;;;13.80;93.80;;;;;;5037697;28;19921;-74
2022/07/04 05:52:49;;;;;;;;;;;13.80;93.60;;;;;;5037664;28;20262;-73
2022/07/04 05:55:17;;;;;;;;;;;13.90;93.30;;;;;;5036601;28;19928;-75
2022/07/04 05:57:44;;;;;;;;;;;14.10;93.20;;;;;;5037437;28;19928;-74
2022/07/04 06:00:12;;;;;;;;;;;14.10;93.00;;;;;;5036320;28;19943;-75
2022/07/04 06:02:41;;;;;;;;;;;14.20;93.00;;;;;;5003906;28;19920;-75
2022/07/04 06:05:08;;;;;;;;;;;14.20;93.00;;;;;;5020343;28;19925;-76
2022/07/04 06:07:37;;;;;;;;;;;14.30;93.00;;;;;;5018786;28;19921;-75
2022/07/04 06:10:08;;;;;;;;;;;14.40;92.70;;;;;;5037223;28;20271;-74
2022/07/04 06:12:35;;;;;;;;;;;14.50;92.50;;;;;;5037207;28;19921;-75
2022/07/04 06:15:05;;;;;;;;;;;14.60;92.50;;;;;;5036243;28;19921;-75
2022/07/04 06:17:32;;;;;;;;;;;14.70;92.50;;;;;;5035765;28;20274;-74
2022/07/04 06:19:59;;;;;;;;;;;14.70;92.10;;;;;;5055846;28;19921;-76
2022/07/04 06:22:27;;;;;;;;;;;14.80;92.20;;;;;;5056066;28;19920;-74
2022/07/04 06:24:54;;;;;;;;;;;14.80;91.80;;;;;;5056249;28;19971;-76
2022/07/04 06:27:22;;;;;;;;;;;14.80;92.00;;;;;;5055626;28;19924;-75
2022/07/04 06:29:49;;;;;;;;;;;14.80;92.00;;;;;;5056066;28;19932;-75
2022/07/04 06:32:16;;;;;;;;;;;14.80;91.80;;;;;;5056746;28;19920;-74
2022/07/04 06:37:30;;;;;;;;;;;14.60;91.80;;;;;;5055821;28;20031;-74
2022/07/04 06:40:04;;;;;;;;;;;14.50;92.00;;;;;;5055081;28;19946;-75
2022/07/04 06:42:32;;;;;;;;;;;14.40;92.00;;;;;;5056658;28;20224;-74
2022/07/04 06:44:59;;;;;;;;;;;14.30;92.20;;;;;;5055955;28;19925;-75
2022/07/04 06:47:27;;;;;;;;;;;14.30;92.20;;;;;;5055329;28;19924;-75
2022/07/04 06:49:54;;;;;;;;;;;14.30;92.30;;;;;;5056407;28;19921;-74
2022/07/04 06:52:21;;;;;;;;;;;14.30;92.40;;;;;;5056534;28;20282;-76
2022/07/04 06:54:49;;;;;;;;;;;14.30;92.20;;;;;;5054492;28;19925;-73
2022/07/04 06:57:16;;;;;;;;;;;14.40;92.30;;;;;;5056343;28;19921;-74
2022/07/04 06:59:59;;;;;;;;;;;14.40;92.30;;;;;;5054303;28;20282;-75
2022/07/04 07:02:26;;;;;;;;;;;14.50;92.30;;;;;;5056267;28;20244;-75
2022/07/04 07:04:55;;;;;;;;;;;14.50;92.00;;;;;;5056085;28;19921;-75
2022/07/04 07:07:24;;;;;;;;;;;14.50;91.90;;;;;;5054123;28;19944;-76
2022/07/04 07:09:51;;;;;;;;;;;14.50;92.00;;;;;;5055210;28;20339;-73
2022/07/04 07:12:19;;;;;;;;;;;14.40;91.80;;;;;;5054742;28;19920;-75
2022/07/04 07:14:47;;;;;;;;;;;14.50;92.00;;;;;;5054653;28;19920;-75
2022/07/04 07:17:15;;;;;;;;;;;14.40;92.10;;;;;;5050476;28;20316;-74
2022/07/04 07:19:43;;;;;;;;;;;14.40;92.10;;;;;;5035758;28;20311;-75
2022/07/04 07:22:12;;;;;;;;;;;14.50;92.00;;;;;;5034411;28;20291;-74
2022/07/04 07:24:39;;;;;;;;;;;14.50;91.50;;;;;;5035428;28;19925;-74
2022/07/04 07:27:08;;;;;;;;;;;14.60;91.50;;;;;;5034433;28;20347;-74
2022/07/04 07:29:36;;;;;;;;;;;14.50;91.20;;;;;;5018325;28;19921;-75
2022/07/04 07:32:04;;;;;;;;;;;14.60;91.10;;;;;;5035300;28;19925;-75
2022/07/04 07:34:32;;;;;;;;;;;14.60;91.00;;;;;;5034142;28;20263;-75
2022/07/04 07:36:59;;;;;;;;;;;14.70;91.10;;;;;;5001911;28;19932;-74
2022/07/04 07:39:27;;;;;;;;;;;14.70;91.10;;;;;;5017824;28;19921;-74
2022/07/04 07:41:54;;;;;;;;;;;14.80;90.90;;;;;;5034099;28;20338;-73
2022/07/04 07:44:21;;;;;;;;;;;14.90;90.40;;;;;;5035162;28;19928;-75
2022/07/04 07:46:49;;;;;;;;;;;14.90;90.10;;;;;;5034052;28;19948;-73
2022/07/04 07:49:16;;;;;;;;;;;15.10;90.20;;;;;;5034910;28;19921;-73
2022/07/04 07:51:44;;;;;;;;;;;15.10;88.80;;;;;;5034476;28;19921;-73
2022/07/04 07:54:11;;;;;;;;;;;15.20;88.80;;;;;;5034101;28;19928;-75
2022/07/04 07:56:44;;;;;;;;;;;15.20;87.60;;;;;;5034999;28;19928;-75
2022/07/04 07:59:11;;;;;;;;;;;15.40;85.70;;;;;;5035002;28;19921;-73
2022/07/04 08:01:38;;;;;;;;;;;15.40;86.40;;;;;;5033891;28;19921;-76
2022/07/04 08:06:52;;;;;;;;;;;15.60;85.00;;;;;;5033637;28;19932;-76
2022/07/04 08:09:40;;;;;;;;;;;15.60;84.50;;;;;;5034901;28;19921;-72
2022/07/04 08:12:08;;;;;;;;;;;15.70;85.50;;;;;;5034924;28;19928;-74
2022/07/04 08:14:35;;;;;;;;;;;15.80;84.00;;;;;;5016517;28;19920;-72
2022/07/04 08:17:05;;;;;;;;;;;15.90;83.20;;;;;;5034607;28;20394;-72
2022/07/04 08:19:32;;;;;;;;;;;16.00;82.50;;;;;;5034607;28;19921;-74
2022/07/04 08:22:00;;;;;;;;;;;16.00;81.40;;;;;;5033292;28;19932;-74
2022/07/04 08:24:43;;;;;;;;;;;16.10;81.60;;;;;;5034692;28;19928;-74
2022/07/04 08:27:11;;;;;;;;;;;16.20;82.70;;;;;;5016461;28;19920;-74
2022/07/04 08:30:00;;;;;;;2.05;0.68;;;16.30;80.40;;;;;;5112291;27;20377;-73
2022/07/04 08:32:28;;;;;;;3.45;0.70;;;16.40;81.80;;;;;;5074042;28;20056;-72
2022/07/04 08:34:56;;;;;;;3.58;0.88;;;16.40;81.20;;;;;;5090764;28;20048;-72
2022/07/04 08:37:24;;;;;;;5.57;0.80;;;16.50;80.70;;;;;;5057353;28;20493;-69
2022/07/04 08:39:51;;;;;;;4.13;0.80;;;16.60;80.40;;;;;;5090610;28;20051;-69
2022/07/04 08:42:21;;;;;;;3.33;0.80;;;16.60;80.20;;;;;;5091679;28;20051;-71
2022/07/04 08:44:55;;;;;;;4.18;0.80;;;16.70;79.70;;;;;;5091616;28;20471;-69
2022/07/04 08:47:24;;;;;;;3.08;0.70;;;16.80;79.80;;;;;;5090523;28;20044;-69
2022/07/04 08:50:06;;;;;;;1.83;0.60;;;16.90;79.70;;;;;;5073719;28;20040;-70
2022/07/04 08:52:39;;;;;;;1.80;0.50;;;16.90;78.80;;;;;;5073891;28;20052;-70
2022/07/04 09:00:45;;;;;;;5.00;0.70;;;17.20;77.90;;;;;;5072657;28;20044;-71
2022/07/04 09:03:13;;;;;;;;;;;17.40;76.60;;;;;;5074029;28;20731;-72
2022/07/04 09:05:40;;;;;;;1.45;0.70;;;17.50;74.60;;;;;;5091013;28;19935;-69
2022/07/04 09:08:08;;;;;;;3.28;0.70;;;17.60;76.30;;;;;;5090065;28;20048;-73
2022/07/04 09:10:38;;;;;;;3.40;0.77;;;17.70;76.30;;;;;;5091186;28;20045;-75
2022/07/04 09:13:11;;;;;;;2.33;0.70;;;17.80;75.60;;;;;;5056331;28;20056;-76
2022/07/04 09:15:46;;;;;;;2.30;0.60;;;17.90;75.60;;;;;;5074118;28;20048;-74
2022/07/04 09:18:27;;;;;;;1.48;0.40;;;18.10;75.10;;;;;;5057573;28;20395;-75
2022/07/04 09:21:00;;;;;;;1.65;0.50;;;18.30;75.30;;;;;;5056104;28;20382;-73
2022/07/04 09:23:30;;;;;;;2.60;0.68;;;18.40;74.90;;;;;;5091160;28;20485;-73
2022/07/04 09:26:21;;;;;;;2.25;0.70;;;18.50;74.40;;;;;;5091080;28;20051;-75
2022/07/04 09:28:52;;;;;;;3.03;0.70;;;18.70;73.20;;;;;;5078937;28;20041;-74
2022/07/04 09:31:23;;;;;;;1.60;0.50;;;18.70;73.80;;;;;;5053790;28;20501;-75
2022/07/04 09:33:57;;;;;;;3.60;0.57;;;18.80;73.70;;;;;;5052606;28;20383;-76
2022/07/04 09:36:30;;;;;;;4.18;0.60;;;18.90;73.30;;;;;;5070878;28;20058;-75
2022/07/04 09:39:21;;;;;;;3.22;0.60;;;18.90;72.30;;;;;;5070578;28;20475;-76
2022/07/04 09:41:56;;;;;;;1.85;0.63;;;18.90;71.40;;;;;;5056389;28;20459;-75
2022/07/04 09:44:28;;;;;;;2.22;0.57;;;18.90;72.50;;;;;;5040329;28;20045;-76
2022/07/04 09:46:56;;;;;;;4.13;0.73;;;19.00;72.30;;;;;;5055454;28;20060;-69
2022/07/04 09:49:24;;;;;;;2.63;0.63;;;19.00;72.30;;;;;;5056692;28;20084;-71
2022/07/04 09:51:53;;;;;;;4.20;0.45;;;19.00;72.50;;;;;;5039588;28;20052;-71
2022/07/04 09:54:32;;;;;;;3.20;0.52;;;19.00;72.30;;;;;;5055794;28;20048;-70
2022/07/04 09:57:02;;;;;;;3.88;0.70;;;19.10;72.50;;;;;;5057038;28;20361;-70
2022/07/04 09:59:30;;;;;;;1.35;0.50;;;19.30;72.40;;;;;;5057275;28;20463;-70
2022/07/04 10:02:13;;;;;;;3.03;1.05;;;19.40;72.20;;;;;;5055309;28;20052;-70
2022/07/04 10:04:45;;;;;;;3.40;0.90;;;19.40;72.10;;;;;;5022757;28;20060;-71
2022/07/04 10:07:35;;;;;;;4.43;0.70;;;19.50;72.20;;;;;;5055700;28;20376;-70
2022/07/04 10:10:24;;;;;;;5.32;1.00;;;19.50;72.90;;;;;;5056404;28;20395;-71
2022/07/04 10:12:54;;;;;;;4.00;1.17;;;19.50;72.10;;;;;;5056685;28;20369;-70
2022/07/04 10:15:24;;;;;;;2.20;0.73;;;19.60;72.20;;;;;;5055216;28;20456;-74
2022/07/04 10:17:51;;;;;;;3.80;0.80;;;19.60;71.40;;;;;;5039019;28;20044;-70
2022/07/04 10:20:19;;;;;;;3.97;0.77;;;19.70;71.90;;;;;;5021559;28;20045;-70
2022/07/04 10:22:47;;;;;;;3.13;0.80;;;19.80;71.90;;;;;;5056257;28;20063;-71
2022/07/04 10:25:15;;;;;;;;;;;19.90;71.10;;;;;;5056787;28;20052;-73
2022/07/04 10:27:43;;;;;;;7.80;0.88;;;19.90;70.50;;;;;;5037696;28;19948;-75
2022/07/04 10:30:17;;;;;;;2.20;0.70;;;19.90;70.70;;;;;;5055865;28;20498;-73
2022/07/04 10:32:46;;;;;;;5.65;1.80;;;20.00;71.10;;;;;;5056086;28;20045;-75
2022/07/04 10:35:15;;;;;;;6.40;1.30;;;19.90;71.10;;;;;;5043265;28;20372;-73
2022/07/04 10:38:07;;;;;;;2.40;0.80;;;20.00;71.00;;;;;;5040273;28;20050;-71
2022/07/04 10:40:50;;;;;;;2.65;0.70;;;20.00;70.80;;;;;;5006798;28;20372;-72
2022/07/04 10:43:30;;;;;;;3.33;0.85;;;19.90;70.40;;;;;;5038540;28;20060;-71
2022/07/04 10:46:16;;;;;;;5.43;0.90;;;19.80;69.90;;;;;;5055994;28;20056;-70
2022/07/04 10:48:55;;;;;;;3.13;0.80;;;19.70;70.90;;;;;;5054996;28;20044;-71
2022/07/04 10:51:35;;;;;;;4.47;0.80;;;19.70;71.60;;;;;;5055377;28;20044;-72
2022/07/04 10:54:07;;;;;;;2.42;0.80;;;19.70;72.70;;;;;;5038575;28;20492;-71
2022/07/04 10:56:41;;;;;;;2.85;0.80;;;19.70;72.30;;;;;;5035784;28;20057;-72
2022/07/04 10:59:29;;;;;;;3.83;0.80;;;19.70;73.20;;;;;;5018567;28;20045;-74
2022/07/04 11:02:11;;;;;;;4.78;0.73;;;19.80;71.90;;;;;;5017438;28;20041;-72
2022/07/04 11:04:56;;;;;;;3.10;0.90;;;19.90;72.00;;;;;;5038551;28;20051;-72
2022/07/04 11:07:30;;;;;;;3.35;0.80;;;19.90;72.30;;;;;;5021109;28;20075;-72
2022/07/04 11:10:16;;;;;;;4.88;0.93;;;19.90;72.90;;;;;;5055908;28;20072;-74
2022/07/04 11:12:55;;;;;;;3.03;0.80;;;20.10;72.20;;;;;;5036314;28;20056;-67
2022/07/04 11:15:28;;;;;;;2.35;0.77;;;20.20;71.30;;;;;;5053551;28;20056;-67
2022/07/04 11:18:04;;;;;;;5.38;1.20;;;20.40;70.50;;;;;;5055314;28;20045;-68
2022/07/04 11:20:38;;;;;;;1.63;0.80;;;20.50;70.80;;;;;;5054299;28;20384;-68
2022/07/04 11:23:19;;;;;;;3.00;0.77;;;20.50;70.10;;;;;;5055062;28;20045;-70
2022/07/04 11:25:52;;;;;;;4.38;0.80;;;20.50;69.80;;;;;;5055154;28;20055;-73
2022/07/04 11:28:39;;;;;;;1.50;0.60;;;20.60;69.70;;;;;;5053704;28;20052;-76
2022/07/04 11:31:11;;;;;;;2.95;0.82;;;20.60;70.20;;;;;;5037988;28;20340;-73
2022/07/04 11:33:41;;;;;;;4.35;1.00;;;20.60;69.80;;;;;;5053905;28;20363;-74
2022/07/04 11:36:14;;;;;;;2.78;0.90;;;20.60;70.00;;;;;;5054996;28;20383;-71
2022/07/04 11:38:55;;;;;;;2.83;0.60;;;20.60;68.80;;;;;;5055025;28;20056;-73
2022/07/04 11:47:08;;;;;;;2.70;0.80;;;20.80;69.30;;;;;;5053749;28;20041;-72
2022/07/04 11:49:40;;;;;;;2.55;0.70;;;20.80;70.00;;;;;;5020984;28;20040;-74
2022/07/04 11:52:08;;;;;;;6.03;0.90;;;21.00;69.80;;;;;;5037286;28;20056;-75
2022/07/04 11:54:36;;;;;;;3.13;0.60;;;21.10;68.80;;;;;;5036194;28;20462;-73
2022/07/04 11:57:25;;;;;;;3.95;0.60;;;21.10;68.30;;;;;;5054448;28;20376;-73
2022/07/04 12:00:00;;;;;;;2.75;0.70;;;21.10;68.10;;;;;;5053472;28;20067;-73
2022/07/04 12:02:29;;;;;;;5.40;0.90;;;21.10;68.10;;;;;;5054229;28;20040;-75
2022/07/04 12:04:57;;;;;;;3.35;1.15;;;21.30;67.90;;;;;;5037138;28;20053;-72
2022/07/04 12:07:26;;;;;;;;;;;21.40;67.10;;;;;;5053823;28;20049;-68
2022/07/04 12:09:55;;;;;;;3.20;0.80;;;21.50;67.00;;;;;;5036894;28;19926;-74
2022/07/04 12:12:23;;;;;;;2.67;0.80;;;21.60;67.60;;;;;;5036828;28;20053;-73
2022/07/04 12:14:58;;;;;;;5.25;1.00;;;21.80;67.70;;;;;;5035929;28;20045;-73
2022/07/04 12:17:38;;;;;;;9.68;3.33;;;21.90;67.60;;;;;;5036974;28;20064;-70
2022/07/04 12:20:18;;;;;;;7.38;1.10;;;22.10;67.50;;;;;;5053252;28;20368;-69
2022/07/04 12:22:52;;;;;;;4.72;0.90;;;22.30;67.20;;;;;;5054269;28;20059;-74
2022/07/04 12:25:34;;;;;;;3.20;0.80;;;22.50;65.70;;;;;;5038049;28;20045;-71
2022/07/04 12:28:05;;;;;;;3.55;1.13;;;22.50;66.00;;;;;;5040210;28;20049;-75
2022/07/04 12:30:38;;;;;;;3.08;1.08;;;22.60;66.70;;;;;;5074212;28;20048;-74
2022/07/04 12:33:08;;;;;;;4.47;1.00;;;22.80;66.30;;;;;;5073464;28;20384;-74
2022/07/04 12:35:51;;;;;;;4.32;1.00;;;22.90;66.20;;;;;;5072421;28;20045;-75
2022/07/04 12:38:23;;;;;;;3.83;0.90;;;23.00;66.10;;;;;;5074081;28;20384;-69
2022/07/04 12:41:04;;;;;;;3.10;1.20;;;23.00;65.10;;;;;;5061380;28;20056;-69
2022/07/04 12:43:43;;;;;;;3.78;0.93;;;23.10;65.60;;;;;;5054337;28;20040;-68
2022/07/04 12:46:24;;;;;;;3.85;1.00;;;23.20;64.90;;;;;;5054140;28;20049;-67
2022/07/04 12:48:54;;;;;;;4.97;1.00;;;23.30;65.50;;;;;;5053182;28;20056;-75
2022/07/04 12:51:24;;;;;;;4.07;0.60;;;23.40;64.70;;;;;;5053924;28;20049;-70
2022/07/04 12:53:53;;;;;;;4.65;0.88;;;23.50;64.20;;;;;;5053088;28;20056;-72
2022/07/04 12:56:31;;;;;;;2.97;0.93;;;23.40;63.70;;;;;;5053910;28;20387;-69
2022/07/04 12:59:00;;;;;;;;;;;23.50;64.40;;;;;;5054344;28;20056;-68
2022/07/04 13:01:27;;;;;;;2.75;1.00;;;23.50;63.70;;;;;;5053131;28;20351;-76
2022/07/04 13:03:58;;;;;;;3.10;0.95;;;23.50;63.40;;;;;;5053979;28;20052;-72
2022/07/04 13:06:26;;;;;;;3.95;1.08;;;23.30;63.40;;;;;;5053975;28;20063;-71
2022/07/04 13:08:56;;;;;;;5.57;0.90;;;23.10;64.00;;;;;;5053805;28;20064;-75
2022/07/04 13:14:11;;;;;;;5.18;1.20;;;23.10;65.10;;;;;;5052162;28;20037;-68
2022/07/04 13:16:38;;;;;;;4.28;0.90;;;23.50;64.20;;;;;;5057348;28;20048;-69
2022/07/04 13:19:07;;;;;;;7.03;0.90;;;23.80;63.70;;;;;;5057643;28;20045;-68
2022/07/04 13:21:36;;;;;;;3.78;1.20;;;24.00;63.50;;;;;;5056750;28;20041;-68
2022/07/04 13:24:04;;;;;;;3.78;0.82;;;24.20;62.90;;;;;;5057536;28;20506;-68
2022/07/04 13:26:32;;;;;;;;;;;24.50;62.80;;;;;;5056881;28;20056;-68
2022/07/04 13:29:01;;;;;;;7.25;0.95;;;24.90;61.20;;;;;;5045448;28;19921;-66
2022/07/04 13:31:28;;;;;;;4.00;0.90;;;26.20;61.00;;;;;;5037459;28;20041;-66
2022/07/04 13:33:56;;;;;;;;;;;27.40;59.40;;;;;;5019791;28;20042;-71
2022/07/04 13:36:24;;;;;;;3.42;1.00;;;28.70;56.10;;;;;;5020184;28;19921;-67
2022/07/04 13:38:52;;;;;;;2.42;0.80;;;29.70;54.80;;;;;;5037469;28;20050;-71
2022/07/04 13:41:32;;;;;;;4.20;1.20;;;30.60;54.00;;;;;;5019308;28;20053;-71
2022/07/04 13:44:02;;;;;;;4.13;1.20;;;31.20;53.20;;;;;;5036936;28;20050;-71
2022/07/04 13:46:31;;;;;;;4.45;1.00;;;30.60;52.90;;;;;;5036134;28;20049;-70
2022/07/04 13:48:59;;;;;;;3.65;1.15;;;31.30;53.10;;;;;;5037202;28;20053;-71
2022/07/04 13:51:26;;;;;;;2.88;0.90;;;31.10;52.30;;;;;;5037038;28;20053;-71
2022/07/04 13:53:54;;;;;;;5.88;1.10;;;30.10;52.40;;;;;;5018705;28;20053;-72
2022/07/04 13:56:22;;;;;;;3.08;0.90;;;29.40;52.90;;;;;;5020035;28;20049;-73
2022/07/04 13:58:50;;;;;;;3.17;0.98;;;28.60;53.30;;;;;;5036545;28;20041;-75
2022/07/04 14:01:19;;;;;;;3.92;1.00;;;28.10;54.70;;;;;;5018530;28;20049;-73
2022/07/04 14:03:49;;;;;;;8.32;1.25;;;27.50;55.60;;;;;;5037305;28;20052;-75
2022/07/04 14:06:18;;;;;;;5.07;0.95;;;27.60;55.90;;;;;;5037055;28;20052;-73
2022/07/04 14:08:45;;;;;;;5.47;1.00;;;27.10;56.20;;;;;;5018383;28;20045;-74
2022/07/04 14:11:13;;;;;;;4.63;1.00;;;27.20;56.50;;;;;;5018926;28;20380;-71
2022/07/04 14:13:41;;;;;;;2.78;1.17;;;28.10;56.00;;;;;;5035764;28;20464;-73
2022/07/04 14:16:08;;;;;;;5.68;1.23;;;29.50;54.40;;;;;;5019356;28;20041;-72
2022/07/04 14:18:36;;;;;;;;;;;30.00;52.90;;;;;;5019882;28;20049;-70
2022/07/04 14:21:03;;;;;;;4.05;1.20;;;30.70;52.10;;;;;;5018469;28;19921;-71